Flight Track Log - Related Links

Times and Time Zones

All times are in EST time to prevent confusion due to time zone crossing. See the CSZ9911 flight status page for this flight to view local times or setup timezone preferences in your user account.

Time Position Orientation Groundspeed Altitude Reporting Facility
EST Latitude Longitude Course Direction KTS MPH feet Rate Location/Type
Thu 07:14:00 PM 23.3925 113.1075 319° Northwest  Level Estimated
Thu 07:15:00 PM 23.4608 113.0430 319° Northwest  Level Estimated
Thu 07:16:00 PM 23.5291 112.9785 319° Northwest  Level Estimated
Thu 07:17:00 PM 23.5973 112.9138 319° Northwest  Level Estimated
Thu 07:18:00 PM 23.6655 112.8492 319° Northwest  Level Estimated
Thu 07:19:00 PM 23.7337 112.7844 319° Northwest  Level Estimated
Thu 07:20:00 PM 23.8019 112.7196 319° Northwest  Level Estimated
Thu 07:21:00 PM 23.8700 112.6547 319° Northwest  Level Estimated
Thu 07:22:00 PM 23.9381 112.5898 319° Northwest  Level Estimated
Thu 07:23:00 PM 24.0062 112.5248 319° Northwest  Level Estimated
Thu 07:24:00 PM 24.0743 112.4597 319° Northwest  Level Estimated
Thu 07:25:00 PM 24.1423 112.3945 319° Northwest  Level Estimated
Thu 07:26:00 PM 24.2103 112.3293 319° Northwest  Level Estimated
Thu 07:27:00 PM 24.2783 112.2640 319° Northwest  Level Estimated
Thu 07:28:00 PM 24.3462 112.1986 319° Northwest  Level Estimated
Thu 07:29:00 PM 24.4141 112.1332 319° Northwest  Level Estimated
Thu 07:30:00 PM 24.4820 112.0677 319° Northwest  Level Estimated
Thu 07:31:00 PM 24.5499 112.0021 319° Northwest  Level Estimated
Thu 07:32:00 PM 24.6177 111.9364 319° Northwest  Level Estimated
Thu 07:33:00 PM 24.6855 111.8707 319° Northwest  Level Estimated
Thu 07:34:00 PM 24.7533 111.8049 319° Northwest  Level Estimated
Thu 07:35:00 PM 24.8211 111.7391 319° Northwest  Level Estimated
Thu 07:36:00 PM 24.8888 111.6731 319° Northwest  Level Estimated
Thu 07:37:00 PM 24.9565 111.6071 319° Northwest  Level Estimated
Thu 07:38:00 PM 25.0241 111.5410 318° Northwest  Level Estimated
Thu 07:39:00 PM 25.0917 111.4749 318° Northwest  Level Estimated
Thu 07:40:00 PM 25.1593 111.4087 318° Northwest  Level Estimated
Thu 07:41:00 PM 25.2269 111.3423 318° Northwest  Level Estimated
Thu 07:42:00 PM 25.2945 111.2760 318° Northwest  Level Estimated
Thu 07:43:00 PM 25.3620 111.2095 318° Northwest  Level Estimated
Thu 07:44:00 PM 25.4294 111.1430 318° Northwest  Level Estimated
Thu 07:45:00 PM 25.4969 111.0764 318° Northwest  Level Estimated
Thu 07:46:00 PM 25.5643 111.0097 318° Northwest  Level Estimated
Thu 07:47:00 PM 25.6317 110.9430 318° Northwest  Level Estimated
Thu 07:48:00 PM 25.6991 110.8762 318° Northwest  Level Estimated
Thu 07:49:00 PM 25.7664 110.8093 318° Northwest  Level Estimated
Thu 07:50:00 PM 25.8337 110.7423 318° Northwest  Level Estimated
Thu 07:51:00 PM 25.9010 110.6752 318° Northwest  Level Estimated
Thu 07:52:00 PM 25.9682 110.6081 318° Northwest  Level Estimated
Thu 07:53:00 PM 26.0354 110.5409 318° Northwest  Level Estimated
Thu 07:54:00 PM 26.1026 110.4736 318° Northwest  Level Estimated
Thu 07:55:00 PM 26.1698 110.4063 318° Northwest  Level Estimated
Thu 07:56:00 PM 26.2369 110.3389 318° Northwest  Level Estimated
Thu 07:57:00 PM 26.3039 110.2713 318° Northwest  Level Estimated
Thu 07:58:00 PM 26.3710 110.2038 318° Northwest  Level Estimated
Thu 07:59:00 PM 26.4380 110.1361 318° Northwest  Level Estimated
Thu 08:00:00 PM 26.5050 110.0683 318° Northwest  Level Estimated
Thu 08:01:00 PM 26.5720 110.0005 318° Northwest  Level Estimated
Thu 08:02:00 PM 26.6389 109.9326 318° Northwest  Level Estimated
Thu 08:03:00 PM 26.7058 109.8646 318° Northwest  Level Estimated
Thu 08:04:00 PM 26.7726 109.7965 318° Northwest  Level Estimated
Thu 08:05:00 PM 26.8395 109.7284 318° Northwest  Level Estimated
Thu 08:06:00 PM 26.9062 109.6602 318° Northwest  Level Estimated
Thu 08:07:00 PM 26.9730 109.5919 318° Northwest  Level Estimated
Thu 08:08:00 PM 27.0397 109.5235 318° Northwest  Level Estimated
Thu 08:09:00 PM 27.1064 109.4550 318° Northwest  Level Estimated
Thu 08:10:00 PM 27.1731 109.3864 318° Northwest  Level Estimated
Thu 08:11:00 PM 27.2397 109.3178 318° Northwest  Level Estimated
Thu 08:12:00 PM 27.3063 109.2491 317° Northwest  Level Estimated
Thu 08:13:00 PM 27.3729 109.1803 317° Northwest  Level Estimated
Thu 08:14:00 PM 27.4394 109.1114 317° Northwest  Level Estimated
Thu 08:15:00 PM 27.5059 109.0425 317° Northwest  Level Estimated
Thu 08:16:00 PM 27.5723 108.9734 317° Northwest  Level Estimated
Thu 08:17:00 PM 27.6388 108.9043 317° Northwest  Level Estimated
Thu 08:18:00 PM 27.7052 108.8351 317° Northwest  Level Estimated
Thu 08:19:00 PM 27.7715 108.7658 317° Northwest  Level Estimated
Thu 08:20:00 PM 27.8378 108.6964 317° Northwest  Level Estimated
Thu 08:21:00 PM 27.9041 108.6269 317° Northwest  Level Estimated
Thu 08:22:00 PM 27.9704 108.5574 317° Northwest  Level Estimated
Thu 08:23:00 PM 28.0366 108.4877 317° Northwest  Level Estimated
Thu 08:24:00 PM 28.1028 108.4180 317° Northwest  Level Estimated
Thu 08:25:00 PM 28.1689 108.3482 317° Northwest  Level Estimated
Thu 08:26:00 PM 28.2350 108.2783 317° Northwest  Level Estimated
Thu 08:27:00 PM 28.3011 108.2083 317° Northwest  Level Estimated
Thu 08:28:00 PM 28.3672 108.1383 317° Northwest  Level Estimated
Thu 08:29:00 PM 28.4332 108.0681 317° Northwest  Level Estimated
Thu 08:30:00 PM 28.4991 107.9978 317° Northwest  Level Estimated
Thu 08:31:00 PM 28.5651 107.9275 317° Northwest  Level Estimated
Thu 08:32:00 PM 28.6310 107.8571 317° Northwest  Level Estimated
Thu 08:33:00 PM 28.6968 107.7866 317° Northwest  Level Estimated
Thu 08:34:00 PM 28.7626 107.7160 317° Northwest  Level Estimated
Thu 08:35:00 PM 28.8284 107.6453 317° Northwest  Level Estimated
Thu 08:36:00 PM 28.8942 107.5745 317° Northwest  Level Estimated
Thu 08:37:00 PM 28.9599 107.5036 317° Northwest  Level Estimated
Thu 08:38:00 PM 29.0256 107.4327 317° Northwest  Level Estimated
Thu 08:39:00 PM 29.0912 107.3616 317° Northwest  Level Estimated
Thu 08:40:00 PM 29.1568 107.2905 317° Northwest  Level Estimated
Thu 08:41:00 PM 29.2223 107.2193 317° Northwest  Level Estimated
Thu 08:42:00 PM 29.2879 107.1479 316° Northwest  Level Estimated
Thu 08:43:00 PM 29.3534 107.0765 316° Northwest  Level Estimated
Thu 08:44:00 PM 29.4188 107.0050 316° Northwest  Level Estimated
Thu 08:45:00 PM 29.4842 106.9334 316° Northwest  Level Estimated
Thu 08:46:00 PM 29.5496 106.8618 316° Northwest  Level Estimated
Thu 08:47:00 PM 29.6149 106.7900 316° Northwest  Level Estimated
Thu 08:48:00 PM 29.6802 106.7181 316° Northwest  Level Estimated
Thu 08:49:00 PM 29.7455 106.6461 316° Northwest  Level Estimated
Thu 08:50:00 PM 29.8107 106.5741 316° Northwest  Level Estimated
Thu 08:51:00 PM 29.8759 106.5019 316° Northwest  Level Estimated
Thu 08:52:00 PM 29.9410 106.4297 316° Northwest  Level Estimated
Thu 08:53:00 PM 30.0061 106.3573 316° Northwest  Level Estimated
Thu 08:54:00 PM 30.0712 106.2849 316° Northwest  Level Estimated
Thu 08:55:00 PM 30.1362 106.2124 316° Northwest  Level Estimated
Thu 08:56:00 PM 30.2012 106.1397 316° Northwest  Level Estimated
Thu 08:57:00 PM 30.2661 106.0670 316° Northwest  Level Estimated
Thu 08:58:00 PM 30.3310 105.9942 316° Northwest  Level Estimated
Thu 08:59:00 PM 30.3959 105.9213 316° Northwest  Level Estimated
Thu 09:00:00 PM 30.4607 105.8483 316° Northwest  Level Estimated
Thu 09:01:00 PM 30.5255 105.7752 316° Northwest  Level Estimated
Thu 09:02:00 PM 30.5902 105.7020 316° Northwest  Level Estimated
Thu 09:03:00 PM 30.6549 105.6286 316° Northwest  Level Estimated
Thu 09:04:00 PM 30.7195 105.5552 316° Northwest  Level Estimated
Thu 09:05:00 PM 30.7842 105.4817 316° Northwest  Level Estimated
Thu 09:06:00 PM 30.8487 105.4081 316° Northwest  Level Estimated
Thu 09:07:00 PM 30.9133 105.3344 316° Northwest  Level Estimated
Thu 09:08:00 PM 30.9778 105.2606 316° Northwest  Level Estimated
Thu 09:09:00 PM 31.0422 105.1867 316° Northwest  Level Estimated
Thu 09:10:00 PM 31.1066 105.1127 315° West  Level Estimated
Thu 09:11:00 PM 31.1709 105.0386 315° West  Level Estimated
Thu 09:12:00 PM 31.2353 104.9644 315° West  Level Estimated
Thu 09:13:00 PM 31.2995 104.8901 315° West  Level Estimated
Thu 09:14:00 PM 31.3638 104.8157 315° West  Level Estimated
Thu 09:15:00 PM 31.4280 104.7412 315° West  Level Estimated
Thu 09:16:00 PM 31.4281 104.7411 316° Northwest  Level Estimated
Thu 09:17:00 PM 31.4281 104.7411 168° South  Level Estimated
Thu 09:18:00 PM 31.4281 104.7411 168° South  Level Estimated
Thu 09:19:00 PM 31.4281 104.7411 168° South  Level Estimated
Thu 09:20:00 PM 31.4281 104.7411 168° South  Level Estimated
Thu 09:21:00 PM 31.4281 104.7411 168° South  Level Estimated
Thu 09:22:00 PM 31.4281 104.7411 168° South  Level Estimated
Thu 09:23:00 PM 31.4281 104.7411 168° South  Level Estimated
Thu 09:24:00 PM 31.4281 104.7411 168° South  Level Estimated
Thu 09:25:00 PM 31.4281 104.7411 168° South  Level Estimated
Thu 09:26:00 PM 31.4281 104.7411 168° South  Level Estimated
Thu 09:27:00 PM 31.4281 104.7411 168° South  Level Estimated
Thu 09:28:00 PM 31.4281 104.7411 168° South  Level Estimated
Thu 09:29:00 PM 31.4281 104.7411 168° South  Level Estimated
Thu 09:30:00 PM 31.4281 104.7411 168° South  Level Estimated
Thu 09:31:00 PM 31.4281 104.7411 168° South  Level Estimated

Login

Don't have an account? Register now (free) for customized features, flight alerts, and more!